createdAt,value
2022-12-06T00:01:29.000Z,10.03
2022-12-06T00:03:57.557Z,8.67
2022-12-06T00:06:25.414Z,10.60
2022-12-06T00:08:52.333Z,9.30
2022-12-06T00:11:21.060Z,9.50
2022-12-06T00:13:47.926Z,9.17
2022-12-06T00:16:16.456Z,9.43
2022-12-06T00:18:44.982Z,9.63
2022-12-06T00:21:11.336Z,10.23
2022-12-06T00:23:39.157Z,9.20
2022-12-06T00:26:06.472Z,9.17
2022-12-06T00:28:33.892Z,10.07
2022-12-06T00:31:01.996Z,10.53
2022-12-06T00:33:29.279Z,9.53
2022-12-06T00:35:57.017Z,9.47
2022-12-06T00:38:23.507Z,10.53
2022-12-06T00:40:50.347Z,10.23
2022-12-06T00:43:16.872Z,9.90
2022-12-06T00:45:44.462Z,8.07
2022-12-06T00:48:10.977Z,10.73
2022-12-06T00:50:37.419Z,9.73
2022-12-06T00:53:03.960Z,9.83
2022-12-06T00:55:30.380Z,9.50
2022-12-06T00:57:56.807Z,11.70
2022-12-06T01:00:23.354Z,10.93
2022-12-06T01:02:49.835Z,10.57
2022-12-06T01:05:16.446Z,11.17
2022-12-06T01:07:42.914Z,10.13
2022-12-06T01:10:09.558Z,9.30
2022-12-06T01:12:35.959Z,9.67
2022-12-06T01:15:02.398Z,9.00
2022-12-06T01:17:28.892Z,10.03
2022-12-06T01:19:55.318Z,10.80
2022-12-06T01:22:21.858Z,12.17
2022-12-06T01:24:48.351Z,10.63
2022-12-06T01:27:14.859Z,11.63
2022-12-06T01:29:41.252Z,10.90
2022-12-06T01:32:07.666Z,9.60
2022-12-06T01:34:34.250Z,10.63
2022-12-06T01:37:00.794Z,10.70
2022-12-06T01:39:27.204Z,11.00
2022-12-06T01:41:53.639Z,11.23
2022-12-06T01:44:56.249Z,9.90
2022-12-06T01:47:35.235Z,9.60
2022-12-06T01:50:07.698Z,10.80
2022-12-06T01:52:38.160Z,10.60
2022-12-06T01:55:07.110Z,12.53
2022-12-06T01:57:33.650Z,10.13
2022-12-06T02:00:01.137Z,10.30
2022-12-06T02:02:28.139Z,10.20
2022-12-06T02:04:54.887Z,10.20
2022-12-06T02:07:22.483Z,12.60
2022-12-06T02:09:50.719Z,11.97
2022-12-06T02:12:17.222Z,11.87
2022-12-06T02:14:47.516Z,11.57
2022-12-06T02:17:26.114Z,11.33
2022-12-06T02:20:00.145Z,12.93
2022-12-06T02:22:44.859Z,14.20
2022-12-06T02:25:34.186Z,13.23
2022-12-06T02:28:27.061Z,13.10
2022-12-06T02:31:15.198Z,13.83
2022-12-06T02:34:04.018Z,15.97
2022-12-06T02:37:05.683Z,15.20
2022-12-06T02:39:38.566Z,15.97
2022-12-06T02:42:23.495Z,18.43
2022-12-06T02:44:56.109Z,18.23
2022-12-06T02:47:25.743Z,17.70
2022-12-06T02:49:54.902Z,20.07
2022-12-06T02:52:24.360Z,17.10
2022-12-06T02:54:51.368Z,19.80
2022-12-06T02:57:27.662Z,19.63
2022-12-06T02:59:54.352Z,20.73
2022-12-06T03:02:21.921Z,19.97
2022-12-06T03:04:54.478Z,18.03
2022-12-06T03:07:34.659Z,15.60
2022-12-06T03:10:25.371Z,15.77
2022-12-06T03:13:02.068Z,17.30
2022-12-06T03:15:45.093Z,17.90
2022-12-06T03:18:35.236Z,17.17
2022-12-06T03:21:06.240Z,18.23
2022-12-06T03:23:44.615Z,17.20
2022-12-06T03:26:14.477Z,15.27
2022-12-06T03:28:42.645Z,17.50
2022-12-06T03:31:11.807Z,18.60
2022-12-06T03:33:46.530Z,14.73
2022-12-06T03:36:14.697Z,18.27
2022-12-06T03:38:46.490Z,17.57
2022-12-06T03:41:14.745Z,16.63
2022-12-06T03:43:41.192Z,16.20
2022-12-06T03:46:18.067Z,17.73
2022-12-06T03:48:54.109Z,14.27
2022-12-06T03:51:29.625Z,14.70
2022-12-06T03:54:01.005Z,14.53
2022-12-06T03:56:27.559Z,18.23
2022-12-06T03:58:54.109Z,17.20
2022-12-06T04:01:20.648Z,15.43
2022-12-06T04:03:47.169Z,14.23
2022-12-06T04:06:14.022Z,14.83
2022-12-06T04:08:40.697Z,15.27
2022-12-06T04:11:07.111Z,17.00
2022-12-06T04:13:33.943Z,15.47
2022-12-06T04:16:01.424Z,16.17
2022-12-06T04:18:28.268Z,14.70
2022-12-06T04:21:17.316Z,11.97
2022-12-06T04:23:46.749Z,15.57
2022-12-06T04:26:16.625Z,15.53
2022-12-06T04:29:01.632Z,14.70
2022-12-06T04:31:47.792Z,13.40
2022-12-06T04:34:32.854Z,11.97
2022-12-06T04:37:17.862Z,11.40
2022-12-06T04:39:44.666Z,10.53
2022-12-06T04:42:30.256Z,10.50
2022-12-06T04:44:57.021Z,11.27
2022-12-06T04:47:23.808Z,11.73
2022-12-06T04:49:50.202Z,11.10
2022-12-06T04:52:17.258Z,8.93
2022-12-06T04:54:43.654Z,12.43
2022-12-06T04:57:14.939Z,12.40
2022-12-06T04:59:42.679Z,11.13
2022-12-06T05:02:12.160Z,10.20
2022-12-06T05:04:38.664Z,9.83
2022-12-06T05:07:05.075Z,10.73
2022-12-06T05:09:31.498Z,9.77
2022-12-06T05:11:58.006Z,8.90
2022-12-06T05:14:24.404Z,9.83
2022-12-06T05:16:50.966Z,10.00
2022-12-06T05:19:17.438Z,10.93
2022-12-06T05:21:43.858Z,12.13
2022-12-06T05:24:10.378Z,11.47
2022-12-06T05:26:36.862Z,11.43
2022-12-06T05:29:03.599Z,11.70
2022-12-06T05:31:30.071Z,12.17
2022-12-06T05:33:56.564Z,12.13
2022-12-06T05:36:24.960Z,10.70
2022-12-06T05:38:52.946Z,11.13
2022-12-06T05:41:24.496Z,9.87
2022-12-06T05:43:50.936Z,11.03
2022-12-06T05:46:17.724Z,9.47
2022-12-06T05:48:44.760Z,12.67
2022-12-06T05:51:11.299Z,12.93
2022-12-06T05:53:38.868Z,11.67
2022-12-06T05:56:10.973Z,11.37
2022-12-06T05:58:37.815Z,12.13
2022-12-06T06:01:06.173Z,10.53
2022-12-06T06:03:32.674Z,11.17
2022-12-06T06:06:00.322Z,11.37
2022-12-06T06:08:27.745Z,10.83
2022-12-06T06:10:54.412Z,10.40
2022-12-06T06:13:21.038Z,11.40
2022-12-06T06:15:49.096Z,10.67
2022-12-06T06:18:16.538Z,12.57
2022-12-06T06:20:48.153Z,11.50
2022-12-06T06:23:14.591Z,12.43
2022-12-06T06:25:41.106Z,11.87
2022-12-06T06:28:07.510Z,11.03
2022-12-06T06:30:33.892Z,12.23
2022-12-06T06:33:00.418Z,7.90
2022-12-06T06:35:26.882Z,10.30
2022-12-06T06:37:53.282Z,8.83
2022-12-06T06:40:19.682Z,8.20
2022-12-06T06:42:46.069Z,9.10
2022-12-06T06:45:12.493Z,7.73
2022-12-06T06:47:38.962Z,9.97
2022-12-06T06:50:06.680Z,10.60
2022-12-06T06:52:33.124Z,11.23
2022-12-06T06:54:59.558Z,8.30
2022-12-06T06:57:25.955Z,9.83
2022-12-06T06:59:52.367Z,9.40
2022-12-06T07:02:19.175Z,7.63
2022-12-06T07:04:45.653Z,7.97
2022-12-06T07:07:17.849Z,7.23
2022-12-06T07:09:47.348Z,7.60
2022-12-06T07:12:13.982Z,8.60
2022-12-06T07:14:40.435Z,8.40
2022-12-06T07:17:07.068Z,6.40
2022-12-06T07:19:33.509Z,6.93
2022-12-06T07:21:59.920Z,6.67
2022-12-06T07:24:26.316Z,6.87
2022-12-06T07:26:52.733Z,7.30
2022-12-06T07:29:19.119Z,5.60
2022-12-06T07:31:45.587Z,7.70
2022-12-06T07:34:11.991Z,6.80
2022-12-06T07:36:38.427Z,6.67
2022-12-06T07:39:07.798Z,7.67
2022-12-06T07:41:55.493Z,6.00
2022-12-06T07:44:40.625Z,6.00
2022-12-06T07:47:09.027Z,6.63
2022-12-06T07:49:35.447Z,6.47
2022-12-06T07:52:02.327Z,5.50
2022-12-06T07:54:29.079Z,7.30
2022-12-06T07:56:56.409Z,5.67
2022-12-06T07:59:23.177Z,6.80
2022-12-06T08:01:50.499Z,7.90
2022-12-06T08:04:16.989Z,5.60
2022-12-06T08:06:43.439Z,5.70
2022-12-06T08:09:09.962Z,6.03
2022-12-06T08:11:36.536Z,5.10
2022-12-06T08:14:04.054Z,4.80
2022-12-06T08:16:30.797Z,5.00
2022-12-06T08:18:57.437Z,7.13
2022-12-06T08:21:26.177Z,4.77
2022-12-06T08:23:54.196Z,4.60
2022-12-06T08:26:21.129Z,5.57
2022-12-06T08:28:47.551Z,5.13
2022-12-06T08:31:16.857Z,6.57
2022-12-06T08:33:43.886Z,4.50
2022-12-06T08:36:12.947Z,4.87
2022-12-06T08:38:39.812Z,4.13
2022-12-06T08:41:27.317Z,5.50
2022-12-06T08:43:54.530Z,4.93
2022-12-06T08:46:21.213Z,4.63
2022-12-06T08:48:47.717Z,5.57
2022-12-06T08:51:14.233Z,4.27
2022-12-06T08:53:40.649Z,4.70
2022-12-06T08:56:07.252Z,4.20
2022-12-06T08:58:33.669Z,5.03
2022-12-06T09:01:00.120Z,4.57
2022-12-06T09:03:26.629Z,4.83
2022-12-06T09:05:53.052Z,4.67
2022-12-06T09:08:19.515Z,4.97
2022-12-06T09:10:45.984Z,4.77
2022-12-06T09:13:12.392Z,6.00
2022-12-06T09:15:38.859Z,4.40
2022-12-06T09:18:05.411Z,4.90
2022-12-06T09:20:31.908Z,3.50
2022-12-06T09:22:58.337Z,4.70
2022-12-06T09:25:24.997Z,6.07
2022-12-06T09:27:51.443Z,5.27
2022-12-06T09:30:17.879Z,4.70
2022-12-06T09:32:44.371Z,4.37
2022-12-06T09:35:15.037Z,4.97
2022-12-06T09:37:41.838Z,5.03
2022-12-06T09:40:14.361Z,4.67
2022-12-06T09:43:00.797Z,4.67
2022-12-06T09:45:43.457Z,4.30
2022-12-06T09:48:26.537Z,4.33
2022-12-06T09:50:59.783Z,5.00
2022-12-06T09:53:48.867Z,4.27
2022-12-06T09:56:24.510Z,3.97
2022-12-06T09:59:21.809Z,3.80
2022-12-06T10:02:06.925Z,4.07
2022-12-06T10:04:55.155Z,4.50
2022-12-06T10:07:41.440Z,4.97
2022-12-06T10:10:26.679Z,4.77
2022-12-06T10:13:11.940Z,4.77
2022-12-06T10:15:51.096Z,5.00
2022-12-06T10:18:32.736Z,4.07
2022-12-06T10:21:17.844Z,4.00
2022-12-06T10:24:07.107Z,4.17
2022-12-06T10:26:50.074Z,5.10
2022-12-06T10:29:29.139Z,4.00
2022-12-06T10:31:59.563Z,3.90
2022-12-06T10:34:50.999Z,5.50
2022-12-06T10:37:21.339Z,3.20
2022-12-06T10:39:58.079Z,3.97
2022-12-06T10:42:31.876Z,4.13
2022-12-06T10:45:48.008Z,3.10
2022-12-06T10:48:33.141Z,3.03
2022-12-06T10:51:17.106Z,3.50
2022-12-06T10:53:49.121Z,2.90
2022-12-06T10:56:37.199Z,3.50
2022-12-06T10:59:27.298Z,4.63
2022-12-06T11:01:54.956Z,3.03
2022-12-06T11:04:25.309Z,3.80
2022-12-06T11:07:16.816Z,2.80
2022-12-06T11:09:46.772Z,3.83
2022-12-06T11:12:31.475Z,2.37
2022-12-06T11:15:19.002Z,6.03
2022-12-06T11:17:49.294Z,1.87
2022-12-06T11:20:26.420Z,4.63
2022-12-06T11:23:11.103Z,2.43
2022-12-06T11:25:56.147Z,2.33
2022-12-06T11:28:36.298Z,3.37
2022-12-06T11:31:24.761Z,2.37
2022-12-06T11:33:51.273Z,1.50
2022-12-06T11:36:17.762Z,5.40
2022-12-06T11:38:44.588Z,1.87
2022-12-06T11:41:15.564Z,1.40
2022-12-06T11:43:42.062Z,1.57
2022-12-06T11:46:10.872Z,4.20
2022-12-06T11:48:37.950Z,1.00
2022-12-06T11:51:07.383Z,1.40
2022-12-06T11:53:48.035Z,1.40
2022-12-06T11:56:26.678Z,1.30
2022-12-06T11:59:26.888Z,1.93
2022-12-06T12:01:55.793Z,2.43
2022-12-06T12:04:24.649Z,3.10
2022-12-06T12:06:56.912Z,2.53
2022-12-06T12:09:24.208Z,1.50
2022-12-06T12:11:59.620Z,1.90
2022-12-06T12:14:29.558Z,1.57
2022-12-06T12:16:59.000Z,1.57
2022-12-06T12:19:54.223Z,1.37
2022-12-06T12:22:25.530Z,1.60
2022-12-06T12:27:44.696Z,2.57
2022-12-06T12:30:25.749Z,4.47
2022-12-06T12:33:17.328Z,2.80
2022-12-06T12:35:46.771Z,5.03
2022-12-06T12:38:22.086Z,2.47
2022-12-06T12:40:52.370Z,3.17
2022-12-06T12:43:33.618Z,4.40
2022-12-06T12:46:12.052Z,1.87
2022-12-06T12:48:41.234Z,2.83
2022-12-06T12:51:21.297Z,2.00
2022-12-06T12:53:49.411Z,2.23
2022-12-06T12:56:20.737Z,2.40
2022-12-06T12:58:49.539Z,3.30
2022-12-06T13:01:25.108Z,1.67
2022-12-06T13:03:56.405Z,2.07
2022-12-06T13:06:56.191Z,2.73
2022-12-06T13:09:27.555Z,5.17
2022-12-06T13:11:58.451Z,1.90
2022-12-06T13:14:26.161Z,4.23
2022-12-06T13:16:54.556Z,3.60
2022-12-06T13:19:31.470Z,2.83
2022-12-06T13:22:00.995Z,3.70
2022-12-06T13:24:32.408Z,2.77
2022-12-06T13:27:01.681Z,3.97
2022-12-06T13:29:34.331Z,4.27
2022-12-06T13:32:08.208Z,3.30
2022-12-06T13:34:46.807Z,3.90
2022-12-06T13:37:43.823Z,5.63
2022-12-06T13:40:29.207Z,3.47
2022-12-06T13:42:55.633Z,5.40
2022-12-06T13:45:37.188Z,5.10
2022-12-06T13:48:03.792Z,4.40
2022-12-06T13:50:33.200Z,4.43
2022-12-06T13:53:01.060Z,4.93
2022-12-06T13:55:28.415Z,6.07
2022-12-06T13:57:54.746Z,5.73
2022-12-06T14:00:30.290Z,5.97
2022-12-06T14:03:02.558Z,5.27
2022-12-06T14:08:33.477Z,4.47
2022-12-06T14:11:15.956Z,3.97
2022-12-06T14:13:44.516Z,3.63
2022-12-06T14:16:19.735Z,2.93
2022-12-06T14:18:46.179Z,3.60
2022-12-06T14:21:26.638Z,3.57
2022-12-06T14:23:53.176Z,4.20
2022-12-06T14:26:25.708Z,5.07
2022-12-06T14:28:54.658Z,4.47
2022-12-06T14:31:36.099Z,5.63
2022-12-06T14:34:02.963Z,7.97
2022-12-06T14:36:32.176Z,7.27
2022-12-06T14:39:01.430Z,7.40
2022-12-06T14:41:52.786Z,4.87
2022-12-06T14:44:20.633Z,3.93
2022-12-06T14:46:48.211Z,3.80
2022-12-06T14:49:37.242Z,4.23
2022-12-06T14:52:20.471Z,4.53
2022-12-06T14:54:47.397Z,4.27
2022-12-06T14:57:28.779Z,4.13
2022-12-06T15:00:35.836Z,4.73
2022-12-06T15:03:08.430Z,3.97
2022-12-06T15:05:38.310Z,4.37
2022-12-06T15:08:26.730Z,4.90
2022-12-06T15:11:09.854Z,4.10
2022-12-06T15:13:36.751Z,3.23
2022-12-06T15:16:09.236Z,3.47
2022-12-06T15:18:39.740Z,4.03
2022-12-06T15:21:17.267Z,3.57
2022-12-06T15:23:56.770Z,4.30
2022-12-06T15:26:24.275Z,3.13
2022-12-06T15:28:50.931Z,4.07
2022-12-06T15:31:20.282Z,4.17
2022-12-06T15:33:47.603Z,4.03
2022-12-06T15:36:30.878Z,5.03
2022-12-06T15:38:57.723Z,3.50
2022-12-06T15:41:26.611Z,4.43
2022-12-06T15:43:54.105Z,3.30
2022-12-06T15:46:25.896Z,5.77
2022-12-06T15:48:53.237Z,4.13
2022-12-06T15:51:27.143Z,3.37
2022-12-06T15:53:55.508Z,4.07
2022-12-06T15:56:24.886Z,2.87
2022-12-06T15:58:51.558Z,2.67
2022-12-06T16:01:25.663Z,4.83
2022-12-06T16:03:54.191Z,3.77
2022-12-06T16:06:22.567Z,3.33
2022-12-06T16:08:49.107Z,3.33
2022-12-06T16:11:17.873Z,3.83
2022-12-06T16:13:44.473Z,3.70
2022-12-06T16:16:11.213Z,3.37
2022-12-06T16:18:37.727Z,3.80
2022-12-06T16:21:05.345Z,3.67
2022-12-06T16:26:39.132Z,3.37
2022-12-06T16:29:06.840Z,4.37
2022-12-06T16:31:37.997Z,4.47
2022-12-06T16:34:05.081Z,4.90
2022-12-06T16:36:32.347Z,3.70
2022-12-06T16:39:01.991Z,4.13
2022-12-06T16:41:31.648Z,4.07
2022-12-06T16:43:58.646Z,6.70
2022-12-06T16:46:35.764Z,6.30
2022-12-06T16:49:43.496Z,6.63
2022-12-06T16:51:52.727Z,7.07
2022-12-06T16:54:19.255Z,6.70
2022-12-06T16:56:46.086Z,5.87
2022-12-06T16:59:17.373Z,7.47
2022-12-06T17:01:54.722Z,7.63
2022-12-06T17:04:21.452Z,5.67
2022-12-06T17:06:48.279Z,6.50
2022-12-06T17:09:14.840Z,8.33
2022-12-06T17:11:59.977Z,7.43
2022-12-06T17:14:26.590Z,7.97
2022-12-06T17:16:53.632Z,9.13
2022-12-06T17:19:21.947Z,8.43
2022-12-06T17:21:49.808Z,10.23
2022-12-06T17:24:16.963Z,8.90
2022-12-06T17:26:43.644Z,6.60
2022-12-06T17:29:10.245Z,6.03
2022-12-06T17:31:37.483Z,5.03
2022-12-06T17:34:05.407Z,6.03
2022-12-06T17:36:31.985Z,5.77
2022-12-06T17:38:58.458Z,5.20
2022-12-06T17:41:50.043Z,6.43
2022-12-06T17:44:18.374Z,4.43
2022-12-06T17:46:44.785Z,4.87
2022-12-06T17:49:14.076Z,8.40
2022-12-06T17:51:40.557Z,8.43
2022-12-06T17:54:09.384Z,7.73
2022-12-06T17:56:41.467Z,11.83
2022-12-06T17:59:13.531Z,12.97
2022-12-06T18:02:06.618Z,10.47
2022-12-06T18:04:30.993Z,12.80
2022-12-06T18:06:58.521Z,12.53
2022-12-06T18:09:25.119Z,9.63
2022-12-06T18:11:51.558Z,9.40
2022-12-06T18:14:18.124Z,10.33
2022-12-06T18:16:46.149Z,10.60
2022-12-06T18:19:15.307Z,10.43
2022-12-06T18:21:42.131Z,10.50
2022-12-06T18:24:30.587Z,11.87
2022-12-06T18:26:57.812Z,10.83
2022-12-06T18:29:24.536Z,9.60
2022-12-06T18:31:51.748Z,9.97
2022-12-06T18:34:19.044Z,11.20
2022-12-06T18:36:45.572Z,10.30
2022-12-06T18:39:16.039Z,11.80
2022-12-06T18:41:43.754Z,9.77
2022-12-06T18:44:10.799Z,10.07
2022-12-06T18:46:38.792Z,9.40
2022-12-06T18:49:05.703Z,10.43
2022-12-06T18:51:34.765Z,9.03
2022-12-06T18:54:04.275Z,8.57
2022-12-06T18:56:31.869Z,7.93
2022-12-06T18:59:00.121Z,12.90
2022-12-06T19:01:28.999Z,10.97
2022-12-06T19:03:59.451Z,8.97
2022-12-06T19:06:27.682Z,9.33
2022-12-06T19:08:55.981Z,9.47
2022-12-06T19:11:23.145Z,7.70
2022-12-06T19:13:51.461Z,10.10
2022-12-06T19:16:40.049Z,6.93
2022-12-06T19:19:15.545Z,9.37
2022-12-06T19:21:43.810Z,9.20
2022-12-06T19:24:11.663Z,7.13
2022-12-06T19:26:38.102Z,7.70
2022-12-06T19:29:05.659Z,7.47
2022-12-06T19:31:32.078Z,6.33
2022-12-06T19:33:58.514Z,5.93
2022-12-06T19:36:28.487Z,6.13
2022-12-06T19:38:56.352Z,6.00
2022-12-06T19:41:22.968Z,8.40
2022-12-06T19:44:07.937Z,6.20
2022-12-06T19:46:34.482Z,5.50
2022-12-06T19:49:05.377Z,6.50
2022-12-06T19:51:36.687Z,5.97
2022-12-06T19:54:03.995Z,6.07
2022-12-06T19:56:30.793Z,5.97
2022-12-06T19:58:58.166Z,8.77
2022-12-06T20:01:25.982Z,7.00
2022-12-06T20:03:54.393Z,6.00
2022-12-06T20:06:22.969Z,5.97
2022-12-06T20:08:50.617Z,7.37
2022-12-06T20:11:37.868Z,7.80
2022-12-06T20:14:07.406Z,6.70
2022-12-06T20:16:33.974Z,7.10
2022-12-06T20:19:00.398Z,7.47
2022-12-06T20:21:26.812Z,6.00
2022-12-06T20:23:53.380Z,6.63
2022-12-06T20:26:20.042Z,5.33
2022-12-06T20:28:47.622Z,6.67
2022-12-06T20:31:17.726Z,5.97
2022-12-06T20:33:44.544Z,6.87
2022-12-06T20:36:12.026Z,5.43
2022-12-06T20:38:39.611Z,4.97
2022-12-06T20:41:10.255Z,5.17
2022-12-06T20:43:37.406Z,5.60
2022-12-06T20:46:11.637Z,4.17
2022-12-06T20:48:41.727Z,5.83
2022-12-06T20:51:10.728Z,4.77
2022-12-06T20:53:37.156Z,4.90
2022-12-06T20:56:09.060Z,4.43
2022-12-06T20:58:36.164Z,3.20
2022-12-06T21:01:03.741Z,4.50
2022-12-06T21:03:31.943Z,4.83
2022-12-06T21:06:07.364Z,4.00
2022-12-06T21:08:33.850Z,3.67
2022-12-06T21:11:22.138Z,3.33
2022-12-06T21:13:46.786Z,2.93
2022-12-06T21:16:16.244Z,3.13
2022-12-06T21:18:43.045Z,4.20
2022-12-06T21:21:10.221Z,3.47
2022-12-06T21:23:37.489Z,2.70
2022-12-06T21:26:05.423Z,3.50
2022-12-06T21:28:32.600Z,4.60
2022-12-06T21:30:59.344Z,3.07
2022-12-06T21:33:25.913Z,3.27
2022-12-06T21:35:52.619Z,4.37
2022-12-06T21:38:21.070Z,3.60
2022-12-06T21:40:52.964Z,2.93
2022-12-06T21:43:20.961Z,3.73
2022-12-06T21:45:47.414Z,3.93
2022-12-06T21:48:13.816Z,8.50
2022-12-06T21:50:40.305Z,6.07
2022-12-06T21:53:06.865Z,5.33
2022-12-06T21:55:33.272Z,5.30
2022-12-06T21:57:59.708Z,6.20
2022-12-06T22:00:26.120Z,5.57
2022-12-06T22:02:53.718Z,4.23
2022-12-06T22:05:20.547Z,6.93
2022-12-06T22:07:47.114Z,5.90
2022-12-06T22:10:13.591Z,6.20
2022-12-06T22:12:40.005Z,7.17
2022-12-06T22:15:06.922Z,6.53
2022-12-06T22:17:33.323Z,7.67
2022-12-06T22:20:00.096Z,7.20
2022-12-06T22:22:26.853Z,8.63
2022-12-06T22:24:53.939Z,7.93
2022-12-06T22:27:20.350Z,7.83
2022-12-06T22:29:47.576Z,8.00
2022-12-06T22:32:14.079Z,7.37
2022-12-06T22:34:40.471Z,9.10
2022-12-06T22:37:06.933Z,10.63
2022-12-06T22:39:33.360Z,7.50
2022-12-06T22:41:59.787Z,9.63
2022-12-06T22:44:26.201Z,9.17
2022-12-06T22:46:52.657Z,9.30
2022-12-06T22:49:19.120Z,9.13
2022-12-06T22:51:45.880Z,8.37
2022-12-06T22:54:13.388Z,8.60
2022-12-06T22:56:41.238Z,13.43
2022-12-06T22:59:09.177Z,10.27
2022-12-06T23:01:35.926Z,14.60
2022-12-06T23:04:05.192Z,11.83
2022-12-06T23:06:32.356Z,10.47
2022-12-06T23:08:58.971Z,12.30
2022-12-06T23:11:28.029Z,11.70
2022-12-06T23:13:55.094Z,12.03
2022-12-06T23:16:23.788Z,11.97
2022-12-06T23:18:50.656Z,11.37
2022-12-06T23:21:19.520Z,12.10
2022-12-06T23:23:57.005Z,12.27
2022-12-06T23:26:25.707Z,13.00
2022-12-06T23:28:52.517Z,11.53
2022-12-06T23:31:21.420Z,13.00
2022-12-06T23:33:48.450Z,15.33
2022-12-06T23:36:19.786Z,12.77
2022-12-06T23:38:46.597Z,13.57
2022-12-06T23:41:18.336Z,11.00
2022-12-06T23:43:44.911Z,15.13
2022-12-06T23:46:13.816Z,16.20
2022-12-06T23:48:40.346Z,16.73
2022-12-06T23:51:09.595Z,18.20
2022-12-06T23:53:36.714Z,15.53
2022-12-06T23:56:14.432Z,15.43
2022-12-06T23:58:42.104Z,13.87
